Nyala, Nevada Weather observations

Data are for observation ending at time listed.
 Day   Time    Ave.   Ave.  Ave.  Vector   Max.   Stn.    Total    Solar   Ave.  
  of    of     Air    Rel.  Wind   Wind    Wind   Baro.  Precip.   Rad.    Soil  
Year   Day     Temp.  Hum.  Speed  Dir.    Gust   Pres.                    Temp. 
2014   (PST)    F      %     mph   deg.    mph     mb.     in.     W/m2     F   
------------------------------------------------------------------------------
 231    6:00   67.8    55    4.9   227      8.9    849     0.00       2    81.2
 231    7:00   69.4    54    6.9   196     12.7    850     0.00      28    80.5
 231    8:00   71.3    52    7.5   195     20.1    850     0.00     109    80.0
 231    9:00   76.2    39   10.7   163     21.8    850     0.00     232    79.7
 231   10:00   77.0    38    7.5   168     16.4    850     0.00     245    80.0
 231   11:00   82.2    31    2.2   235      7.6    849     0.00     377    80.6
 231   12:00   85.3    26    3.7   270     14.9    848     0.00     379    82.4
 231   13:00   85.8    23    7.5   273     21.5    848     0.00     358    85.7
 231   14:00   87.2    24    9.1   245     26.3    846     0.00     373    88.4
 231   15:00   84.4    28   12.6   145     25.6    846     0.00     157    90.8
 231   16:00   86.0    25    7.9   178     19.6    846     0.00     232    91.6
 231   17:00   78.1    30   11.6    38     32.0    848     0.00      56    92.0
 231   18:00   70.4    43    7.6    43     23.2    850     0.00       3    91.3
 231   19:00   67.0    62    4.6    22     13.8    850     0.00       4    89.1
 231   20:00   66.5    54    7.6    32     16.1    850     0.00       0    86.8
 231   21:00   67.1    44    4.3    68      9.6    849     0.00       0    84.7
 231   22:00   60.8    68    3.7   206      8.6    849     0.00       0    83.1
 231   23:00   59.8    70    3.5   128      7.0    850     0.00       0    81.6
 232    0:00   59.4    68    2.2   123      6.4    850     0.00       0    80.2
 232    1:00   57.7    71    1.5   182      3.7    850     0.00       0    79.0
 232    2:00   55.7    77    2.0   216      6.1    850     0.00       0    77.8
 232    3:00   53.6    82    1.1    14      3.4    850     0.00       0    76.7
 232    4:00   54.7    84    1.8   158      4.0    851     0.00       0    75.6
 232    5:00   54.7    82    1.2   147      3.7    851     0.00       0    74.8

Return to Nyala, Nevada graphs page.


Western Regional Climate Center,wrcc@dri.edu